sensor_id;sensor_type;location;lat;lon;timestamp;P1;durP1;ratioP1;P2;durP2;ratioP2
59970;SDS011;45825;45.434;9.116;2023-02-20T00:00:15;106.88;;;61.55;;
59970;SDS011;45825;45.434;9.116;2023-02-20T00:02:43;109.30;;;60.95;;
59970;SDS011;45825;45.434;9.116;2023-02-20T00:05:10;117.90;;;65.03;;
59970;SDS011;45825;45.434;9.116;2023-02-20T00:07:37;113.78;;;63.30;;
59970;SDS011;45825;45.434;9.116;2023-02-20T00:10:02;111.05;;;61.67;;
59970;SDS011;45825;45.434;9.116;2023-02-20T00:12:27;112.38;;;62.58;;
59970;SDS011;45825;45.434;9.116;2023-02-20T00:14:53;112.90;;;62.80;;
59970;SDS011;45825;45.434;9.116;2023-02-20T00:17:18;107.10;;;61.10;;
59970;SDS011;45825;45.434;9.116;2023-02-20T00:19:44;113.22;;;62.88;;
59970;SDS011;45825;45.434;9.116;2023-02-20T00:22:09;112.22;;;62.75;;
59970;SDS011;45825;45.434;9.116;2023-02-20T00:24:34;118.30;;;64.95;;
59970;SDS011;45825;45.434;9.116;2023-02-20T00:27:00;118.25;;;63.95;;
59970;SDS011;45825;45.434;9.116;2023-02-20T00:29:25;124.75;;;63.92;;
59970;SDS011;45825;45.434;9.116;2023-02-20T00:31:54;117.95;;;64.57;;
59970;SDS011;45825;45.434;9.116;2023-02-20T00:34:21;121.20;;;65.22;;
59970;SDS011;45825;45.434;9.116;2023-02-20T00:36:47;123.85;;;67.47;;
59970;SDS011;45825;45.434;9.116;2023-02-20T00:39:13;121.53;;;67.18;;
59970;SDS011;45825;45.434;9.116;2023-02-20T00:41:38;129.25;;;68.35;;
59970;SDS011;45825;45.434;9.116;2023-02-20T00:44:03;121.22;;;66.53;;
59970;SDS011;45825;45.434;9.116;2023-02-20T00:46:29;132.98;;;70.78;;
59970;SDS011;45825;45.434;9.116;2023-02-20T00:48:54;125.80;;;67.97;;
59970;SDS011;45825;45.434;9.116;2023-02-20T00:51:19;128.02;;;68.50;;
59970;SDS011;45825;45.434;9.116;2023-02-20T00:53:44;132.32;;;69.18;;
59970;SDS011;45825;45.434;9.116;2023-02-20T00:56:10;137.57;;;71.07;;
59970;SDS011;45825;45.434;9.116;2023-02-20T00:58:35;129.15;;;69.15;;
59970;SDS011;45825;45.434;9.116;2023-02-20T01:01:00;138.93;;;72.93;;
59970;SDS011;45825;45.434;9.116;2023-02-20T01:03:26;130.73;;;67.82;;
59970;SDS011;45825;45.434;9.116;2023-02-20T01:05:51;135.65;;;69.22;;
59970;SDS011;45825;45.434;9.116;2023-02-20T01:08:16;132.68;;;71.40;;
59970;SDS011;45825;45.434;9.116;2023-02-20T01:10:42;140.60;;;73.15;;
59970;SDS011;45825;45.434;9.116;2023-02-20T01:13:07;134.88;;;71.18;;
59970;SDS011;45825;45.434;9.116;2023-02-20T01:15:32;124.88;;;69.68;;
59970;SDS011;45825;45.434;9.116;2023-02-20T01:17:58;133.60;;;72.03;;
59970;SDS011;45825;45.434;9.116;2023-02-20T01:20:23;136.98;;;70.60;;
59970;SDS011;45825;45.434;9.116;2023-02-20T01:22:48;129.38;;;71.15;;
59970;SDS011;45825;45.434;9.116;2023-02-20T01:25:14;133.60;;;70.30;;
59970;SDS011;45825;45.434;9.116;2023-02-20T01:27:39;131.40;;;70.82;;
59970;SDS011;45825;45.434;9.116;2023-02-20T01:30:05;141.50;;;73.25;;
59970;SDS011;45825;45.434;9.116;2023-02-20T01:32:31;126.65;;;69.10;;
59970;SDS011;45825;45.434;9.116;2023-02-20T01:34:56;127.47;;;69.15;;
59970;SDS011;45825;45.434;9.116;2023-02-20T01:37:22;129.93;;;70.10;;
59970;SDS011;45825;45.434;9.116;2023-02-20T01:39:47;131.60;;;69.70;;
59970;SDS011;45825;45.434;9.116;2023-02-20T01:42:13;128.52;;;69.43;;
59970;SDS011;45825;45.434;9.116;2023-02-20T01:44:44;128.40;;;68.85;;
59970;SDS011;45825;45.434;9.116;2023-02-20T01:47:11;126.63;;;67.78;;
59970;SDS011;45825;45.434;9.116;2023-02-20T01:49:43;126.43;;;68.65;;
59970;SDS011;45825;45.434;9.116;2023-02-20T01:54:59;126.50;;;68.25;;
59970;SDS011;45825;45.434;9.116;2023-02-20T01:57:29;130.60;;;69.63;;
59970;SDS011;45825;45.434;9.116;2023-02-20T01:59:58;127.10;;;67.40;;
59970;SDS011;45825;45.434;9.116;2023-02-20T02:02:27;131.23;;;69.00;;
59970;SDS011;45825;45.434;9.116;2023-02-20T02:04:57;123.10;;;65.78;;
59970;SDS011;45825;45.434;9.116;2023-02-20T02:07:22;126.22;;;68.28;;
59970;SDS011;45825;45.434;9.116;2023-02-20T02:09:50;119.38;;;66.53;;
59970;SDS011;45825;45.434;9.116;2023-02-20T02:12:20;124.90;;;67.45;;
59970;SDS011;45825;45.434;9.116;2023-02-20T02:14:46;121.43;;;66.88;;
59970;SDS011;45825;45.434;9.116;2023-02-20T02:17:22;128.25;;;67.10;;
59970;SDS011;45825;45.434;9.116;2023-02-20T02:22:57;130.40;;;65.57;;
59970;SDS011;45825;45.434;9.116;2023-02-20T02:36:31;127.63;;;66.82;;
59970;SDS011;45825;45.434;9.116;2023-02-20T02:47:04;126.90;;;66.63;;
59970;SDS011;45825;45.434;9.116;2023-02-20T02:49:55;125.47;;;64.80;;
59970;SDS011;45825;45.434;9.116;2023-02-20T02:52:26;124.88;;;64.53;;
59970;SDS011;45825;45.434;9.116;2023-02-20T02:55:05;123.68;;;64.45;;
59970;SDS011;45825;45.434;9.116;2023-02-20T02:57:31;128.55;;;64.85;;
59970;SDS011;45825;45.434;9.116;2023-02-20T02:59:59;126.53;;;66.03;;
59970;SDS011;45825;45.434;9.116;2023-02-20T03:02:31;126.37;;;64.87;;
59970;SDS011;45825;45.434;9.116;2023-02-20T03:05:02;129.52;;;63.90;;
59970;SDS011;45825;45.434;9.116;2023-02-20T03:07:30;128.93;;;66.82;;
59970;SDS011;45825;45.434;9.116;2023-02-20T03:10:06;124.47;;;64.65;;
59970;SDS011;45825;45.434;9.116;2023-02-20T03:12:34;128.10;;;65.60;;
59970;SDS011;45825;45.434;9.116;2023-02-20T03:15:13;131.90;;;68.20;;
59970;SDS011;45825;45.434;9.116;2023-02-20T03:18:19;128.68;;;67.10;;
59970;SDS011;45825;45.434;9.116;2023-02-20T03:20:54;129.48;;;65.35;;
59970;SDS011;45825;45.434;9.116;2023-02-20T03:23:24;132.38;;;66.88;;
59970;SDS011;45825;45.434;9.116;2023-02-20T03:26:04;119.43;;;65.07;;
59970;SDS011;45825;45.434;9.116;2023-02-20T03:28:39;126.10;;;64.60;;
59970;SDS011;45825;45.434;9.116;2023-02-20T03:31:12;126.88;;;66.05;;
59970;SDS011;45825;45.434;9.116;2023-02-20T03:33:45;135.90;;;66.55;;
59970;SDS011;45825;45.434;9.116;2023-02-20T03:37:10;134.05;;;68.80;;
59970;SDS011;45825;45.434;9.116;2023-02-20T03:39:57;133.85;;;68.60;;
59970;SDS011;45825;45.434;9.116;2023-02-20T03:42:46;128.98;;;66.50;;
59970;SDS011;45825;45.434;9.116;2023-02-20T03:45:34;129.15;;;66.15;;
59970;SDS011;45825;45.434;9.116;2023-02-20T03:48:05;130.10;;;66.20;;
59970;SDS011;45825;45.434;9.116;2023-02-20T03:50:34;125.65;;;66.28;;
59970;SDS011;45825;45.434;9.116;2023-02-20T03:53:00;133.18;;;68.00;;
59970;SDS011;45825;45.434;9.116;2023-02-20T03:55:26;133.38;;;66.97;;
59970;SDS011;45825;45.434;9.116;2023-02-20T03:57:52;127.70;;;66.03;;
59970;SDS011;45825;45.434;9.116;2023-02-20T04:00:21;139.68;;;70.07;;
59970;SDS011;45825;45.434;9.116;2023-02-20T04:02:52;130.00;;;69.18;;
59970;SDS011;45825;45.434;9.116;2023-02-20T04:05:22;141.63;;;69.10;;
59970;SDS011;45825;45.434;9.116;2023-02-20T04:10:21;136.45;;;68.70;;
59970;SDS011;45825;45.434;9.116;2023-02-20T04:12:50;137.75;;;69.95;;
59970;SDS011;45825;45.434;9.116;2023-02-20T04:15:17;132.27;;;70.32;;
59970;SDS011;45825;45.434;9.116;2023-02-20T04:17:55;142.23;;;70.00;;
59970;SDS011;45825;45.434;9.116;2023-02-20T04:20:25;140.18;;;71.15;;
59970;SDS011;45825;45.434;9.116;2023-02-20T04:22:51;142.65;;;70.65;;
59970;SDS011;45825;45.434;9.116;2023-02-20T04:27:55;144.20;;;72.80;;
59970;SDS011;45825;45.434;9.116;2023-02-20T04:30:20;148.10;;;73.70;;
59970;SDS011;45825;45.434;9.116;2023-02-20T04:32:46;147.43;;;72.15;;
59970;SDS011;45825;45.434;9.116;2023-02-20T04:35:15;148.10;;;71.47;;
59970;SDS011;45825;45.434;9.116;2023-02-20T04:37:42;144.30;;;71.18;;
59970;SDS011;45825;45.434;9.116;2023-02-20T04:40:08;144.05;;;71.45;;
59970;SDS011;45825;45.434;9.116;2023-02-20T04:42:34;152.55;;;73.13;;
59970;SDS011;45825;45.434;9.116;2023-02-20T04:45:00;150.50;;;73.93;;
59970;SDS011;45825;45.434;9.116;2023-02-20T04:47:25;151.00;;;73.63;;
59970;SDS011;45825;45.434;9.116;2023-02-20T04:49:50;156.60;;;73.55;;
59970;SDS011;45825;45.434;9.116;2023-02-20T04:52:15;151.88;;;74.65;;
59970;SDS011;45825;45.434;9.116;2023-02-20T04:54:41;155.07;;;73.88;;
59970;SDS011;45825;45.434;9.116;2023-02-20T04:57:06;154.95;;;75.13;;
59970;SDS011;45825;45.434;9.116;2023-02-20T04:59:31;155.35;;;74.35;;
59970;SDS011;45825;45.434;9.116;2023-02-20T05:01:57;150.88;;;73.22;;
59970;SDS011;45825;45.434;9.116;2023-02-20T05:04:25;149.32;;;75.40;;
59970;SDS011;45825;45.434;9.116;2023-02-20T05:06:51;148.00;;;73.10;;
59970;SDS011;45825;45.434;9.116;2023-02-20T05:09:17;153.90;;;75.18;;
59970;SDS011;45825;45.434;9.116;2023-02-20T05:11:43;145.40;;;73.28;;
59970;SDS011;45825;45.434;9.116;2023-02-20T05:14:09;149.75;;;73.90;;
59970;SDS011;45825;45.434;9.116;2023-02-20T05:16:35;150.13;;;74.18;;
59970;SDS011;45825;45.434;9.116;2023-02-20T05:19:04;141.65;;;73.30;;
59970;SDS011;45825;45.434;9.116;2023-02-20T05:21:31;154.93;;;75.55;;
59970;SDS011;45825;45.434;9.116;2023-02-20T05:24:15;155.85;;;77.38;;
59970;SDS011;45825;45.434;9.116;2023-02-20T05:26:40;145.70;;;72.93;;
59970;SDS011;45825;45.434;9.116;2023-02-20T05:29:06;154.80;;;74.40;;
59970;SDS011;45825;45.434;9.116;2023-02-20T05:31:33;153.57;;;74.15;;
59970;SDS011;45825;45.434;9.116;2023-02-20T05:33:59;157.55;;;75.45;;
59970;SDS011;45825;45.434;9.116;2023-02-20T05:36:24;152.68;;;73.53;;
59970;SDS011;45825;45.434;9.116;2023-02-20T05:38:50;155.95;;;76.22;;
59970;SDS011;45825;45.434;9.116;2023-02-20T05:41:15;157.88;;;74.80;;
59970;SDS011;45825;45.434;9.116;2023-02-20T05:43:41;147.60;;;74.07;;
59970;SDS011;45825;45.434;9.116;2023-02-20T05:46:06;153.07;;;75.07;;
59970;SDS011;45825;45.434;9.116;2023-02-20T05:48:32;162.13;;;76.63;;
59970;SDS011;45825;45.434;9.116;2023-02-20T05:50:57;154.30;;;76.18;;
59970;SDS011;45825;45.434;9.116;2023-02-20T05:53:22;154.95;;;74.07;;
59970;SDS011;45825;45.434;9.116;2023-02-20T05:55:48;153.93;;;76.03;;
59970;SDS011;45825;45.434;9.116;2023-02-20T05:58:13;153.57;;;74.65;;
59970;SDS011;45825;45.434;9.116;2023-02-20T06:00:38;158.13;;;74.82;;
59970;SDS011;45825;45.434;9.116;2023-02-20T06:03:07;155.98;;;74.07;;
59970;SDS011;45825;45.434;9.116;2023-02-20T06:05:34;153.23;;;74.53;;
59970;SDS011;45825;45.434;9.116;2023-02-20T06:07:59;151.10;;;75.53;;
59970;SDS011;45825;45.434;9.116;2023-02-20T06:10:24;152.73;;;75.43;;
59970;SDS011;45825;45.434;9.116;2023-02-20T06:12:50;148.82;;;73.47;;
59970;SDS011;45825;45.434;9.116;2023-02-20T06:15:15;150.07;;;72.25;;
59970;SDS011;45825;45.434;9.116;2023-02-20T06:17:40;149.75;;;71.63;;
59970;SDS011;45825;45.434;9.116;2023-02-20T06:20:06;150.20;;;72.72;;
59970;SDS011;45825;45.434;9.116;2023-02-20T06:22:32;152.23;;;74.13;;
59970;SDS011;45825;45.434;9.116;2023-02-20T06:24:57;154.90;;;74.72;;
59970;SDS011;45825;45.434;9.116;2023-02-20T06:27:22;154.07;;;73.50;;
59970;SDS011;45825;45.434;9.116;2023-02-20T06:29:48;153.55;;;73.35;;
59970;SDS011;45825;45.434;9.116;2023-02-20T06:32:13;157.82;;;74.93;;
59970;SDS011;45825;45.434;9.116;2023-02-20T06:34:39;147.60;;;73.10;;
59970;SDS011;45825;45.434;9.116;2023-02-20T06:37:04;153.63;;;73.13;;
59970;SDS011;45825;45.434;9.116;2023-02-20T06:39:30;154.48;;;75.05;;
59970;SDS011;45825;45.434;9.116;2023-02-20T06:41:56;147.95;;;73.18;;
59970;SDS011;45825;45.434;9.116;2023-02-20T06:44:22;155.27;;;73.25;;
59970;SDS011;45825;45.434;9.116;2023-02-20T06:46:47;146.00;;;74.32;;
59970;SDS011;45825;45.434;9.116;2023-02-20T06:49:13;146.98;;;73.00;;
59970;SDS011;45825;45.434;9.116;2023-02-20T06:51:39;153.45;;;74.82;;
59970;SDS011;45825;45.434;9.116;2023-02-20T06:54:05;147.77;;;70.63;;
59970;SDS011;45825;45.434;9.116;2023-02-20T06:56:32;147.60;;;72.90;;
59970;SDS011;45825;45.434;9.116;2023-02-20T06:58:59;150.38;;;72.35;;
59970;SDS011;45825;45.434;9.116;2023-02-20T07:01:27;157.35;;;72.80;;
59970;SDS011;45825;45.434;9.116;2023-02-20T07:03:55;149.90;;;74.30;;
59970;SDS011;45825;45.434;9.116;2023-02-20T07:06:21;147.18;;;72.30;;
59970;SDS011;45825;45.434;9.116;2023-02-20T07:08:48;147.45;;;73.63;;
59970;SDS011;45825;45.434;9.116;2023-02-20T07:11:13;141.15;;;71.55;;
59970;SDS011;45825;45.434;9.116;2023-02-20T07:13:43;149.32;;;72.10;;
59970;SDS011;45825;45.434;9.116;2023-02-20T07:16:08;142.13;;;74.28;;
59970;SDS011;45825;45.434;9.116;2023-02-20T07:18:34;146.48;;;72.32;;
59970;SDS011;45825;45.434;9.116;2023-02-20T07:20:59;146.25;;;72.43;;
59970;SDS011;45825;45.434;9.116;2023-02-20T07:23:24;151.57;;;72.97;;
59970;SDS011;45825;45.434;9.116;2023-02-20T07:25:50;144.55;;;73.53;;
59970;SDS011;45825;45.434;9.116;2023-02-20T07:28:16;142.40;;;72.68;;
59970;SDS011;45825;45.434;9.116;2023-02-20T07:30:43;148.13;;;70.75;;
59970;SDS011;45825;45.434;9.116;2023-02-20T07:33:10;151.40;;;72.70;;
59970;SDS011;45825;45.434;9.116;2023-02-20T07:35:36;148.25;;;73.47;;
59970;SDS011;45825;45.434;9.116;2023-02-20T07:38:01;147.18;;;72.28;;
59970;SDS011;45825;45.434;9.116;2023-02-20T07:40:27;147.75;;;71.93;;
59970;SDS011;45825;45.434;9.116;2023-02-20T07:42:52;143.55;;;70.90;;
59970;SDS011;45825;45.434;9.116;2023-02-20T07:45:18;142.77;;;70.72;;
59970;SDS011;45825;45.434;9.116;2023-02-20T07:47:43;139.80;;;72.35;;
59970;SDS011;45825;45.434;9.116;2023-02-20T07:50:08;136.93;;;70.40;;
59970;SDS011;45825;45.434;9.116;2023-02-20T07:52:35;138.52;;;69.57;;
59970;SDS011;45825;45.434;9.116;2023-02-20T07:55:00;138.25;;;70.68;;
59970;SDS011;45825;45.434;9.116;2023-02-20T07:57:33;147.93;;;74.30;;
59970;SDS011;45825;45.434;9.116;2023-02-20T08:00:00;140.88;;;74.07;;
59970;SDS011;45825;45.434;9.116;2023-02-20T08:02:25;137.93;;;70.43;;
59970;SDS011;45825;45.434;9.116;2023-02-20T08:04:50;144.98;;;70.75;;
59970;SDS011;45825;45.434;9.116;2023-02-20T08:07:16;141.77;;;72.20;;
59970;SDS011;45825;45.434;9.116;2023-02-20T08:09:43;137.48;;;69.88;;
59970;SDS011;45825;45.434;9.116;2023-02-20T08:12:10;146.07;;;70.38;;
59970;SDS011;45825;45.434;9.116;2023-02-20T08:14:37;137.43;;;70.45;;
59970;SDS011;45825;45.434;9.116;2023-02-20T08:17:03;138.88;;;72.35;;
59970;SDS011;45825;45.434;9.116;2023-02-20T08:19:28;142.07;;;72.25;;
59970;SDS011;45825;45.434;9.116;2023-02-20T08:21:53;134.68;;;70.18;;
59970;SDS011;45825;45.434;9.116;2023-02-20T08:24:18;134.57;;;69.50;;
59970;SDS011;45825;45.434;9.116;2023-02-20T08:26:47;134.02;;;68.15;;
59970;SDS011;45825;45.434;9.116;2023-02-20T08:29:13;138.65;;;70.60;;
59970;SDS011;45825;45.434;9.116;2023-02-20T08:31:39;139.27;;;71.20;;
59970;SDS011;45825;45.434;9.116;2023-02-20T08:34:05;137.00;;;70.25;;
59970;SDS011;45825;45.434;9.116;2023-02-20T08:36:30;149.80;;;71.63;;
59970;SDS011;45825;45.434;9.116;2023-02-20T08:38:56;138.27;;;69.93;;
59970;SDS011;45825;45.434;9.116;2023-02-20T08:41:24;136.40;;;67.18;;
59970;SDS011;45825;45.434;9.116;2023-02-20T08:43:50;130.82;;;69.43;;
59970;SDS011;45825;45.434;9.116;2023-02-20T08:46:15;135.10;;;70.55;;
59970;SDS011;45825;45.434;9.116;2023-02-20T08:48:40;139.73;;;70.95;;
59970;SDS011;45825;45.434;9.116;2023-02-20T08:51:07;139.85;;;69.53;;
59970;SDS011;45825;45.434;9.116;2023-02-20T08:53:33;127.97;;;67.63;;
59970;SDS011;45825;45.434;9.116;2023-02-20T08:55:59;137.20;;;69.10;;
59970;SDS011;45825;45.434;9.116;2023-02-20T08:58:25;133.90;;;68.90;;
59970;SDS011;45825;45.434;9.116;2023-02-20T09:00:50;128.55;;;69.15;;
59970;SDS011;45825;45.434;9.116;2023-02-20T09:03:16;138.25;;;69.55;;
59970;SDS011;45825;45.434;9.116;2023-02-20T09:05:42;127.03;;;67.95;;
59970;SDS011;45825;45.434;9.116;2023-02-20T09:08:08;136.20;;;68.60;;
59970;SDS011;45825;45.434;9.116;2023-02-20T09:10:34;130.10;;;69.05;;
59970;SDS011;45825;45.434;9.116;2023-02-20T09:12:59;138.73;;;71.50;;
59970;SDS011;45825;45.434;9.116;2023-02-20T09:15:24;127.50;;;67.82;;
59970;SDS011;45825;45.434;9.116;2023-02-20T09:17:50;137.38;;;71.75;;
59970;SDS011;45825;45.434;9.116;2023-02-20T09:20:17;136.40;;;71.03;;
59970;SDS011;45825;45.434;9.116;2023-02-20T09:22:45;136.90;;;69.30;;
59970;SDS011;45825;45.434;9.116;2023-02-20T09:25:11;147.93;;;80.93;;
59970;SDS011;45825;45.434;9.116;2023-02-20T09:27:37;136.30;;;71.90;;
59970;SDS011;45825;45.434;9.116;2023-02-20T09:30:03;135.32;;;71.00;;
59970;SDS011;45825;45.434;9.116;2023-02-20T09:32:29;135.15;;;70.78;;
59970;SDS011;45825;45.434;9.116;2023-02-20T09:34:54;138.50;;;70.63;;
59970;SDS011;45825;45.434;9.116;2023-02-20T09:37:21;138.65;;;69.60;;
59970;SDS011;45825;45.434;9.116;2023-02-20T09:39:47;130.82;;;70.00;;
59970;SDS011;45825;45.434;9.116;2023-02-20T09:42:30;139.05;;;71.47;;
59970;SDS011;45825;45.434;9.116;2023-02-20T09:50:02;131.57;;;67.17;;
59970;SDS011;45825;45.434;9.116;2023-02-20T09:52:33;141.32;;;69.80;;
59970;SDS011;45825;45.434;9.116;2023-02-20T09:55:05;141.25;;;71.20;;
59970;SDS011;45825;45.434;9.116;2023-02-20T09:57:35;141.85;;;75.55;;
59970;SDS011;45825;45.434;9.116;2023-02-20T10:00:12;131.88;;;71.88;;
59970;SDS011;45825;45.434;9.116;2023-02-20T10:05:41;129.68;;;67.07;;
59970;SDS011;45825;45.434;9.116;2023-02-20T10:08:09;127.53;;;68.00;;
59970;SDS011;45825;45.434;9.116;2023-02-20T10:10:35;129.10;;;70.88;;
59970;SDS011;45825;45.434;9.116;2023-02-20T10:21:16;116.15;;;63.22;;
59970;SDS011;45825;45.434;9.116;2023-02-20T10:24:12;113.63;;;60.30;;
59970;SDS011;45825;45.434;9.116;2023-02-20T10:27:54;118.95;;;61.45;;
59970;SDS011;45825;45.434;9.116;2023-02-20T10:29:57;117.00;;;63.65;;
59970;SDS011;45825;45.434;9.116;2023-02-20T10:32:27;126.32;;;65.82;;
59970;SDS011;45825;45.434;9.116;2023-02-20T10:35:08;122.22;;;65.70;;
59970;SDS011;45825;45.434;9.116;2023-02-20T10:37:41;123.40;;;64.47;;
59970;SDS011;45825;45.434;9.116;2023-02-20T10:40:16;117.55;;;64.68;;
59970;SDS011;45825;45.434;9.116;2023-02-20T10:42:53;120.40;;;67.90;;
59970;SDS011;45825;45.434;9.116;2023-02-20T10:48:10;114.65;;;63.72;;
59970;SDS011;45825;45.434;9.116;2023-02-20T10:56:14;129.55;;;68.82;;
59970;SDS011;45825;45.434;9.116;2023-02-20T11:01:43;127.35;;;68.05;;
59970;SDS011;45825;45.434;9.116;2023-02-20T11:04:14;123.25;;;67.20;;
59970;SDS011;45825;45.434;9.116;2023-02-20T11:06:45;121.00;;;67.40;;
59970;SDS011;45825;45.434;9.116;2023-02-20T11:09:16;126.28;;;67.18;;
59970;SDS011;45825;45.434;9.116;2023-02-20T11:11:43;120.97;;;67.35;;
59970;SDS011;45825;45.434;9.116;2023-02-20T11:14:11;129.10;;;68.32;;
59970;SDS011;45825;45.434;9.116;2023-02-20T11:17:07;129.43;;;69.28;;
59970;SDS011;45825;45.434;9.116;2023-02-20T11:19:41;126.65;;;66.15;;
59970;SDS011;45825;45.434;9.116;2023-02-20T11:22:10;122.03;;;67.20;;
59970;SDS011;45825;45.434;9.116;2023-02-20T11:24:37;119.63;;;66.90;;
59970;SDS011;45825;45.434;9.116;2023-02-20T11:27:22;125.43;;;67.20;;
59970;SDS011;45825;45.434;9.116;2023-02-20T11:32:40;118.85;;;65.35;;
59970;SDS011;45825;45.434;9.116;2023-02-20T11:37:41;114.22;;;65.57;;
59970;SDS011;45825;45.434;9.116;2023-02-20T11:40:15;116.95;;;65.93;;
59970;SDS011;45825;45.434;9.116;2023-02-20T11:42:40;117.55;;;65.47;;
59970;SDS011;45825;45.434;9.116;2023-02-20T11:45:11;114.68;;;63.75;;
59970;SDS011;45825;45.434;9.116;2023-02-20T11:47:42;119.93;;;66.43;;
59970;SDS011;45825;45.434;9.116;2023-02-20T11:50:18;121.93;;;67.18;;
59970;SDS011;45825;45.434;9.116;2023-02-20T11:52:57;121.50;;;67.75;;
59970;SDS011;45825;45.434;9.116;2023-02-20T11:55:25;123.25;;;67.65;;
59970;SDS011;45825;45.434;9.116;2023-02-20T11:57:51;120.78;;;66.05;;
59970;SDS011;45825;45.434;9.116;2023-02-20T12:00:17;117.60;;;66.43;;
59970;SDS011;45825;45.434;9.116;2023-02-20T12:02:49;124.03;;;65.25;;
59970;SDS011;45825;45.434;9.116;2023-02-20T12:05:16;119.43;;;66.38;;
59970;SDS011;45825;45.434;9.116;2023-02-20T12:10:37;121.95;;;66.97;;
59970;SDS011;45825;45.434;9.116;2023-02-20T12:13:03;114.70;;;63.95;;
59970;SDS011;45825;45.434;9.116;2023-02-20T12:15:30;119.70;;;64.22;;
59970;SDS011;45825;45.434;9.116;2023-02-20T12:20:49;110.05;;;64.55;;
59970;SDS011;45825;45.434;9.116;2023-02-20T12:23:32;101.25;;;61.13;;
59970;SDS011;45825;45.434;9.116;2023-02-20T12:28:54;96.97;;;59.88;;
59970;SDS011;45825;45.434;9.116;2023-02-20T12:36:50;90.30;;;60.20;;
59970;SDS011;45825;45.434;9.116;2023-02-20T12:39:32;95.05;;;61.13;;
59970;SDS011;45825;45.434;9.116;2023-02-20T12:47:40;85.35;;;58.28;;
59970;SDS011;45825;45.434;9.116;2023-02-20T12:55:35;81.82;;;58.25;;
59970;SDS011;45825;45.434;9.116;2023-02-20T12:58:26;83.10;;;58.63;;
59970;SDS011;45825;45.434;9.116;2023-02-20T13:01:04;84.85;;;60.03;;
59970;SDS011;45825;45.434;9.116;2023-02-20T13:03:43;83.60;;;57.33;;
59970;SDS011;45825;45.434;9.116;2023-02-20T13:06:24;83.13;;;57.20;;
59970;SDS011;45825;45.434;9.116;2023-02-20T13:09:05;78.60;;;55.33;;
59970;SDS011;45825;45.434;9.116;2023-02-20T13:11:40;75.80;;;54.33;;
59970;SDS011;45825;45.434;9.116;2023-02-20T13:19:21;80.15;;;54.60;;
59970;SDS011;45825;45.434;9.116;2023-02-20T13:21:54;80.97;;;55.42;;
59970;SDS011;45825;45.434;9.116;2023-02-20T13:26:47;76.03;;;52.93;;
59970;SDS011;45825;45.434;9.116;2023-02-20T13:29:14;70.57;;;51.10;;
59970;SDS011;45825;45.434;9.116;2023-02-20T13:36:46;67.37;;;47.60;;
59970;SDS011;45825;45.434;9.116;2023-02-20T13:47:04;56.80;;;41.55;;
59970;SDS011;45825;45.434;9.116;2023-02-20T13:55:21;48.70;;;35.90;;
59970;SDS011;45825;45.434;9.116;2023-02-20T13:57:50;54.20;;;38.92;;
59970;SDS011;45825;45.434;9.116;2023-02-20T14:00:27;51.97;;;37.00;;
59970;SDS011;45825;45.434;9.116;2023-02-20T14:02:54;51.58;;;36.25;;
59970;SDS011;45825;45.434;9.116;2023-02-20T14:05:24;54.03;;;38.85;;
59970;SDS011;45825;45.434;9.116;2023-02-20T14:07:54;52.22;;;37.00;;
59970;SDS011;45825;45.434;9.116;2023-02-20T14:10:30;52.33;;;36.58;;
59970;SDS011;45825;45.434;9.116;2023-02-20T14:15:24;49.45;;;35.78;;
59970;SDS011;45825;45.434;9.116;2023-02-20T14:17:51;49.53;;;35.05;;
59970;SDS011;45825;45.434;9.116;2023-02-20T14:20:22;53.20;;;36.55;;
59970;SDS011;45825;45.434;9.116;2023-02-20T14:23:07;53.47;;;35.88;;
59970;SDS011;45825;45.434;9.116;2023-02-20T14:25:50;54.88;;;35.42;;
59970;SDS011;45825;45.434;9.116;2023-02-20T14:28:20;57.97;;;37.95;;
59970;SDS011;45825;45.434;9.116;2023-02-20T14:30:45;52.92;;;34.83;;
59970;SDS011;45825;45.434;9.116;2023-02-20T14:33:29;48.30;;;32.05;;
59970;SDS011;45825;45.434;9.116;2023-02-20T14:36:03;48.90;;;31.55;;
59970;SDS011;45825;45.434;9.116;2023-02-20T14:38:34;48.72;;;32.70;;
59970;SDS011;45825;45.434;9.116;2023-02-20T14:41:17;53.38;;;33.17;;
59970;SDS011;45825;45.434;9.116;2023-02-20T14:43:44;51.58;;;33.88;;
59970;SDS011;45825;45.434;9.116;2023-02-20T14:46:20;50.83;;;32.10;;
59970;SDS011;45825;45.434;9.116;2023-02-20T14:48:48;48.63;;;32.42;;
59970;SDS011;45825;45.434;9.116;2023-02-20T14:51:15;50.00;;;31.25;;
59970;SDS011;45825;45.434;9.116;2023-02-20T14:53:41;47.17;;;30.50;;
59970;SDS011;45825;45.434;9.116;2023-02-20T14:56:11;45.85;;;29.00;;
59970;SDS011;45825;45.434;9.116;2023-02-20T14:58:41;48.00;;;31.05;;
59970;SDS011;45825;45.434;9.116;2023-02-20T15:04:01;50.50;;;31.85;;
59970;SDS011;45825;45.434;9.116;2023-02-20T15:06:29;54.10;;;33.13;;
59970;SDS011;45825;45.434;9.116;2023-02-20T15:08:59;54.83;;;32.53;;
59970;SDS011;45825;45.434;9.116;2023-02-20T15:11:26;54.70;;;33.90;;
59970;SDS011;45825;45.434;9.116;2023-02-20T15:13:52;56.17;;;33.67;;
59970;SDS011;45825;45.434;9.116;2023-02-20T15:16:22;59.28;;;33.58;;
59970;SDS011;45825;45.434;9.116;2023-02-20T15:18:49;54.35;;;33.70;;
59970;SDS011;45825;45.434;9.116;2023-02-20T15:21:36;48.05;;;30.25;;
59970;SDS011;45825;45.434;9.116;2023-02-20T15:24:13;50.10;;;31.90;;
59970;SDS011;45825;45.434;9.116;2023-02-20T15:27:11;46.47;;;30.40;;
59970;SDS011;45825;45.434;9.116;2023-02-20T15:29:41;48.35;;;30.20;;
59970;SDS011;45825;45.434;9.116;2023-02-20T15:34:43;40.72;;;27.58;;
59970;SDS011;45825;45.434;9.116;2023-02-20T15:37:15;46.03;;;29.08;;
59970;SDS011;45825;45.434;9.116;2023-02-20T15:39:41;48.78;;;29.65;;
59970;SDS011;45825;45.434;9.116;2023-02-20T15:42:10;47.92;;;28.92;;
59970;SDS011;45825;45.434;9.116;2023-02-20T15:44:36;42.70;;;26.88;;
59970;SDS011;45825;45.434;9.116;2023-02-20T15:47:01;45.85;;;27.10;;
59970;SDS011;45825;45.434;9.116;2023-02-20T15:49:26;41.60;;;26.55;;
59970;SDS011;45825;45.434;9.116;2023-02-20T15:51:52;47.03;;;28.40;;
59970;SDS011;45825;45.434;9.116;2023-02-20T15:54:17;43.67;;;28.95;;
59970;SDS011;45825;45.434;9.116;2023-02-20T15:56:43;44.40;;;27.63;;
59970;SDS011;45825;45.434;9.116;2023-02-20T15:59:09;43.08;;;28.15;;
59970;SDS011;45825;45.434;9.116;2023-02-20T16:01:36;49.72;;;29.73;;
59970;SDS011;45825;45.434;9.116;2023-02-20T16:04:02;46.63;;;29.92;;
59970;SDS011;45825;45.434;9.116;2023-02-20T16:06:28;47.00;;;28.73;;
59970;SDS011;45825;45.434;9.116;2023-02-20T16:08:53;47.30;;;28.95;;
59970;SDS011;45825;45.434;9.116;2023-02-20T16:11:20;48.03;;;29.80;;
59970;SDS011;45825;45.434;9.116;2023-02-20T16:13:51;47.60;;;28.88;;
59970;SDS011;45825;45.434;9.116;2023-02-20T16:16:21;46.72;;;29.33;;
59970;SDS011;45825;45.434;9.116;2023-02-20T16:18:53;45.92;;;29.77;;
59970;SDS011;45825;45.434;9.116;2023-02-20T16:21:19;50.28;;;31.02;;
59970;SDS011;45825;45.434;9.116;2023-02-20T16:23:46;57.42;;;33.38;;